sensor_id;sensor_type;location;lat;lon;timestamp;temperature;humidity
19385;DHT22;9828;54.122;17.974;2022-11-15T00:01:15;6.80;99.90
19385;DHT22;9828;54.122;17.974;2022-11-15T00:06:56;6.80;99.90
19385;DHT22;9828;54.122;17.974;2022-11-15T00:12:36;6.70;99.90
19385;DHT22;9828;54.122;17.974;2022-11-15T00:18:16;6.70;99.90
19385;DHT22;9828;54.122;17.974;2022-11-15T00:23:56;6.70;99.90
19385;DHT22;9828;54.122;17.974;2022-11-15T00:29:36;6.70;99.90
19385;DHT22;9828;54.122;17.974;2022-11-15T00:35:19;6.70;99.90
19385;DHT22;9828;54.122;17.974;2022-11-15T00:40:59;6.70;99.90
19385;DHT22;9828;54.122;17.974;2022-11-15T00:46:41;6.70;99.90
19385;DHT22;9828;54.122;17.974;2022-11-15T00:52:20;6.70;99.90
19385;DHT22;9828;54.122;17.974;2022-11-15T00:58:00;6.70;99.90
19385;DHT22;9828;54.122;17.974;2022-11-15T01:03:41;6.60;99.90
19385;DHT22;9828;54.122;17.974;2022-11-15T01:09:21;6.60;99.90
19385;DHT22;9828;54.122;17.974;2022-11-15T01:15:01;6.50;99.90
19385;DHT22;9828;54.122;17.974;2022-11-15T01:20:42;6.40;99.90
19385;DHT22;9828;54.122;17.974;2022-11-15T01:26:23;6.40;99.90
19385;DHT22;9828;54.122;17.974;2022-11-15T01:32:04;6.40;99.90
19385;DHT22;9828;54.122;17.974;2022-11-15T02:41:44;6.40;99.90
19385;DHT22;9828;54.122;17.974;2022-11-15T02:47:27;6.40;99.90
19385;DHT22;9828;54.122;17.974;2022-11-15T02:53:10;6.40;99.90
19385;DHT22;9828;54.122;17.974;2022-11-15T02:59:50;6.40;99.90
19385;DHT22;9828;54.122;17.974;2022-11-15T03:11:14;6.50;99.90
19385;DHT22;9828;54.122;17.974;2022-11-15T03:17:14;6.40;99.90
19385;DHT22;9828;54.122;17.974;2022-11-15T03:23:08;6.40;99.90
19385;DHT22;9828;54.122;17.974;2022-11-15T03:28:50;6.40;99.90
19385;DHT22;9828;54.122;17.974;2022-11-15T03:34:37;6.30;99.90
19385;DHT22;9828;54.122;17.974;2022-11-15T03:40:23;6.40;99.90
19385;DHT22;9828;54.122;17.974;2022-11-15T03:46:19;6.40;99.90
19385;DHT22;9828;54.122;17.974;2022-11-15T03:52:02;6.40;99.90
19385;DHT22;9828;54.122;17.974;2022-11-15T03:57:42;6.50;99.90
19385;DHT22;9828;54.122;17.974;2022-11-15T04:03:21;6.40;99.90
19385;DHT22;9828;54.122;17.974;2022-11-15T04:09:02;6.40;99.90
19385;DHT22;9828;54.122;17.974;2022-11-15T04:14:41;6.40;99.90
19385;DHT22;9828;54.122;17.974;2022-11-15T04:20:41;6.40;99.90
19385;DHT22;9828;54.122;17.974;2022-11-15T04:26:40;6.40;99.90
19385;DHT22;9828;54.122;17.974;2022-11-15T04:32:20;6.40;99.90
19385;DHT22;9828;54.122;17.974;2022-11-15T04:38:01;6.40;99.90
19385;DHT22;9828;54.122;17.974;2022-11-15T04:43:41;6.40;99.90
19385;DHT22;9828;54.122;17.974;2022-11-15T04:49:21;6.40;99.90
19385;DHT22;9828;54.122;17.974;2022-11-15T04:55:01;6.30;99.90
19385;DHT22;9828;54.122;17.974;2022-11-15T05:00:45;6.30;99.90
19385;DHT22;9828;54.122;17.974;2022-11-15T05:06:25;6.30;99.90
19385;DHT22;9828;54.122;17.974;2022-11-15T05:12:06;6.30;99.90
19385;DHT22;9828;54.122;17.974;2022-11-15T05:17:46;6.20;99.90
19385;DHT22;9828;54.122;17.974;2022-11-15T05:23:26;6.20;99.90
19385;DHT22;9828;54.122;17.974;2022-11-15T05:29:08;6.20;99.90
19385;DHT22;9828;54.122;17.974;2022-11-15T05:34:48;6.20;99.90
19385;DHT22;9828;54.122;17.974;2022-11-15T05:40:32;6.20;99.90
19385;DHT22;9828;54.122;17.974;2022-11-15T05:46:13;6.10;99.90
19385;DHT22;9828;54.122;17.974;2022-11-15T05:51:54;6.20;99.90
19385;DHT22;9828;54.122;17.974;2022-11-15T05:57:34;6.20;99.90
19385;DHT22;9828;54.122;17.974;2022-11-15T06:03:14;6.20;99.90
19385;DHT22;9828;54.122;17.974;2022-11-15T06:08:54;6.10;99.90
19385;DHT22;9828;54.122;17.974;2022-11-15T06:14:34;6.10;99.90
19385;DHT22;9828;54.122;17.974;2022-11-15T06:20:14;6.10;99.90
19385;DHT22;9828;54.122;17.974;2022-11-15T06:25:57;6.20;99.90
19385;DHT22;9828;54.122;17.974;2022-11-15T06:31:37;6.20;99.90
19385;DHT22;9828;54.122;17.974;2022-11-15T06:37:17;6.20;99.90
19385;DHT22;9828;54.122;17.974;2022-11-15T06:42:58;6.20;99.90
19385;DHT22;9828;54.122;17.974;2022-11-15T06:48:40;6.20;99.90
19385;DHT22;9828;54.122;17.974;2022-11-15T06:54:20;6.20;99.90
19385;DHT22;9828;54.122;17.974;2022-11-15T07:00:00;6.20;99.90
19385;DHT22;9828;54.122;17.974;2022-11-15T07:05:39;6.20;99.90
19385;DHT22;9828;54.122;17.974;2022-11-15T07:11:19;6.20;99.90
19385;DHT22;9828;54.122;17.974;2022-11-15T07:16:59;6.40;99.90
19385;DHT22;9828;54.122;17.974;2022-11-15T07:22:40;6.30;99.90
19385;DHT22;9828;54.122;17.974;2022-11-15T07:28:21;6.40;99.90
19385;DHT22;9828;54.122;17.974;2022-11-15T07:34:03;6.40;99.90
19385;DHT22;9828;54.122;17.974;2022-11-15T07:39:44;6.40;99.90
19385;DHT22;9828;54.122;17.974;2022-11-15T07:45:24;6.40;99.90
19385;DHT22;9828;54.122;17.974;2022-11-15T07:51:09;6.40;99.90
19385;DHT22;9828;54.122;17.974;2022-11-15T07:56:52;6.30;99.90
19385;DHT22;9828;54.122;17.974;2022-11-15T08:02:32;6.30;99.90
19385;DHT22;9828;54.122;17.974;2022-11-15T08:08:12;6.30;99.90
19385;DHT22;9828;54.122;17.974;2022-11-15T08:13:52;6.30;99.90
19385;DHT22;9828;54.122;17.974;2022-11-15T08:19:32;6.40;99.90
19385;DHT22;9828;54.122;17.974;2022-11-15T08:25:12;6.30;99.90
19385;DHT22;9828;54.122;17.974;2022-11-15T08:30:52;6.40;99.90
19385;DHT22;9828;54.122;17.974;2022-11-15T08:36:32;6.50;99.90
19385;DHT22;9828;54.122;17.974;2022-11-15T08:42:18;6.40;99.90
19385;DHT22;9828;54.122;17.974;2022-11-15T08:48:01;6.40;99.90
19385;DHT22;9828;54.122;17.974;2022-11-15T08:53:42;6.40;99.90
19385;DHT22;9828;54.122;17.974;2022-11-15T08:59:22;6.40;99.90
19385;DHT22;9828;54.122;17.974;2022-11-15T09:05:03;6.50;99.90
19385;DHT22;9828;54.122;17.974;2022-11-15T09:10:43;6.60;99.90
19385;DHT22;9828;54.122;17.974;2022-11-15T09:16:23;6.60;99.90
19385;DHT22;9828;54.122;17.974;2022-11-15T09:22:06;6.60;99.90
19385;DHT22;9828;54.122;17.974;2022-11-15T09:27:46;6.50;91.00
19385;DHT22;9828;54.122;17.974;2022-11-15T09:33:27;6.60;70.80
19385;DHT22;9828;54.122;17.974;2022-11-15T09:39:07;6.60;94.80
19385;DHT22;9828;54.122;17.974;2022-11-15T09:50:36;6.60;49.20
19385;DHT22;9828;54.122;17.974;2022-11-15T09:56:01;6.60;57.90
19385;DHT22;9828;54.122;17.974;2022-11-15T10:12:48;6.70;31.80
19385;DHT22;9828;54.122;17.974;2022-11-15T10:18:19;6.70;38.40
19385;DHT22;9828;54.122;17.974;2022-11-15T10:23:45;6.70;38.90
19385;DHT22;9828;54.122;17.974;2022-11-15T10:29:06;6.80;28.60
19385;DHT22;9828;54.122;17.974;2022-11-15T10:34:28;6.70;24.80
19385;DHT22;9828;54.122;17.974;2022-11-15T10:40:12;6.70;22.90
19385;DHT22;9828;54.122;17.974;2022-11-15T10:45:36;6.70;22.70
19385;DHT22;9828;54.122;17.974;2022-11-15T10:50:57;6.70;28.30
19385;DHT22;9828;54.122;17.974;2022-11-15T10:56:21;6.70;29.90
19385;DHT22;9828;54.122;17.974;2022-11-15T11:01:46;6.60;51.30
19385;DHT22;9828;54.122;17.974;2022-11-15T11:07:24;6.70;46.90
19385;DHT22;9828;54.122;17.974;2022-11-15T11:12:46;6.70;49.10
19385;DHT22;9828;54.122;17.974;2022-11-15T11:18:19;6.70;83.20
19385;DHT22;9828;54.122;17.974;2022-11-15T11:23:54;6.70;99.90
19385;DHT22;9828;54.122;17.974;2022-11-15T11:41:10;6.70;47.70
19385;DHT22;9828;54.122;17.974;2022-11-15T11:47:30;6.80;27.60
19385;DHT22;9828;54.122;17.974;2022-11-15T11:58:38;6.90;25.10
19385;DHT22;9828;54.122;17.974;2022-11-15T12:04:38;6.80;26.70
19385;DHT22;9828;54.122;17.974;2022-11-15T12:15:53;6.70;59.40
19385;DHT22;9828;54.122;17.974;2022-11-15T12:21:46;6.60;56.50
19385;DHT22;9828;54.122;17.974;2022-11-15T12:27:16;6.60;98.90
19385;DHT22;9828;54.122;17.974;2022-11-15T12:32:58;6.50;58.70
19385;DHT22;9828;54.122;17.974;2022-11-15T12:38:57;6.50;99.90
19385;DHT22;9828;54.122;17.974;2022-11-15T12:49:52;6.50;76.70
19385;DHT22;9828;54.122;17.974;2022-11-15T12:55:33;6.50;88.90
19385;DHT22;9828;54.122;17.974;2022-11-15T13:00:54;6.40;61.70
19385;DHT22;9828;54.122;17.974;2022-11-15T13:06:39;6.50;74.80
19385;DHT22;9828;54.122;17.974;2022-11-15T13:12:02;6.40;76.20
19385;DHT22;9828;54.122;17.974;2022-11-15T13:17:29;6.40;45.00
19385;DHT22;9828;54.122;17.974;2022-11-15T13:28:48;6.40;55.50
19385;DHT22;9828;54.122;17.974;2022-11-15T13:34:30;6.50;74.10
19385;DHT22;9828;54.122;17.974;2022-11-15T13:40:29;6.60;38.10
19385;DHT22;9828;54.122;17.974;2022-11-15T13:46:18;6.60;41.90
19385;DHT22;9828;54.122;17.974;2022-11-15T13:51:49;6.60;34.50
19385;DHT22;9828;54.122;17.974;2022-11-15T13:57:20;6.50;44.80
19385;DHT22;9828;54.122;17.974;2022-11-15T14:02:42;6.50;85.70
19385;DHT22;9828;54.122;17.974;2022-11-15T14:13:34;6.50;58.90
19385;DHT22;9828;54.122;17.974;2022-11-15T14:19:12;6.50;97.00
19385;DHT22;9828;54.122;17.974;2022-11-15T14:24:34;6.50;99.90
19385;DHT22;9828;54.122;17.974;2022-11-15T14:29:55;6.50;99.90
19385;DHT22;9828;54.122;17.974;2022-11-15T14:35:18;6.40;99.90
19385;DHT22;9828;54.122;17.974;2022-11-15T14:40:41;6.30;99.90
19385;DHT22;9828;54.122;17.974;2022-11-15T14:46:02;6.30;99.90
19385;DHT22;9828;54.122;17.974;2022-11-15T14:51:24;6.30;99.90
19385;DHT22;9828;54.122;17.974;2022-11-15T14:56:45;6.30;99.90
19385;DHT22;9828;54.122;17.974;2022-11-15T15:02:26;6.30;99.90
19385;DHT22;9828;54.122;17.974;2022-11-15T15:07:48;6.30;99.90
19385;DHT22;9828;54.122;17.974;2022-11-15T15:13:20;6.40;99.90
19385;DHT22;9828;54.122;17.974;2022-11-15T15:18:42;6.40;99.90
19385;DHT22;9828;54.122;17.974;2022-11-15T15:24:03;6.40;99.90
19385;DHT22;9828;54.122;17.974;2022-11-15T15:29:24;6.40;99.90
19385;DHT22;9828;54.122;17.974;2022-11-15T15:34:46;6.40;99.90
19385;DHT22;9828;54.122;17.974;2022-11-15T15:45:37;6.40;99.90
19385;DHT22;9828;54.122;17.974;2022-11-15T15:50:59;6.50;99.90
19385;DHT22;9828;54.122;17.974;2022-11-15T15:56:21;6.50;99.90
19385;DHT22;9828;54.122;17.974;2022-11-15T16:01:42;6.40;99.90
19385;DHT22;9828;54.122;17.974;2022-11-15T16:07:03;6.40;99.90
19385;DHT22;9828;54.122;17.974;2022-11-15T16:12:34;6.40;99.90
19385;DHT22;9828;54.122;17.974;2022-11-15T16:17:57;6.40;99.90
19385;DHT22;9828;54.122;17.974;2022-11-15T16:23:19;6.30;99.90
19385;DHT22;9828;54.122;17.974;2022-11-15T16:28:42;6.20;99.90
19385;DHT22;9828;54.122;17.974;2022-11-15T16:34:04;6.30;99.90
19385;DHT22;9828;54.122;17.974;2022-11-15T16:39:25;6.20;99.90
19385;DHT22;9828;54.122;17.974;2022-11-15T16:44:48;6.30;99.90
19385;DHT22;9828;54.122;17.974;2022-11-15T16:50:25;6.30;99.90
19385;DHT22;9828;54.122;17.974;2022-11-15T16:55:46;6.30;99.90
19385;DHT22;9828;54.122;17.974;2022-11-15T17:01:24;6.40;99.90
19385;DHT22;9828;54.122;17.974;2022-11-15T17:06:46;6.40;99.90
19385;DHT22;9828;54.122;17.974;2022-11-15T17:12:08;6.40;99.90
19385;DHT22;9828;54.122;17.974;2022-11-15T17:17:31;6.40;99.90
19385;DHT22;9828;54.122;17.974;2022-11-15T17:22:52;6.40;99.90
19385;DHT22;9828;54.122;17.974;2022-11-15T17:28:14;6.40;99.90
19385;DHT22;9828;54.122;17.974;2022-11-15T17:33:36;6.40;99.90
19385;DHT22;9828;54.122;17.974;2022-11-15T17:38:58;6.40;99.90
19385;DHT22;9828;54.122;17.974;2022-11-15T17:44:20;6.40;99.90
19385;DHT22;9828;54.122;17.974;2022-11-15T17:49:41;6.40;99.90
19385;DHT22;9828;54.122;17.974;2022-11-15T17:55:02;6.40;99.90
19385;DHT22;9828;54.122;17.974;2022-11-15T18:00:23;6.40;99.90
19385;DHT22;9828;54.122;17.974;2022-11-15T18:05:44;6.40;99.90
19385;DHT22;9828;54.122;17.974;2022-11-15T18:11:18;6.40;99.90
19385;DHT22;9828;54.122;17.974;2022-11-15T18:16:40;6.40;99.90
19385;DHT22;9828;54.122;17.974;2022-11-15T18:22:01;6.30;95.80
19385;DHT22;9828;54.122;17.974;2022-11-15T18:27:25;6.30;99.90
19385;DHT22;9828;54.122;17.974;2022-11-15T18:32:46;6.30;99.90
19385;DHT22;9828;54.122;17.974;2022-11-15T18:38:07;6.30;99.90
19385;DHT22;9828;54.122;17.974;2022-11-15T18:43:29;6.30;99.90
19385;DHT22;9828;54.122;17.974;2022-11-15T18:48:51;6.30;85.50
19385;DHT22;9828;54.122;17.974;2022-11-15T18:54:14;6.30;85.50
19385;DHT22;9828;54.122;17.974;2022-11-15T18:59:36;6.30;63.20
19385;DHT22;9828;54.122;17.974;2022-11-15T19:04:57;6.30;49.10
19385;DHT22;9828;54.122;17.974;2022-11-15T19:10:19;6.20;59.20
19385;DHT22;9828;54.122;17.974;2022-11-15T19:15:40;6.30;41.00
19385;DHT22;9828;54.122;17.974;2022-11-15T19:21:07;6.30;30.00
19385;DHT22;9828;54.122;17.974;2022-11-15T19:26:31;6.30;21.10
19385;DHT22;9828;54.122;17.974;2022-11-15T19:31:53;6.30;24.50
19385;DHT22;9828;54.122;17.974;2022-11-15T19:37:14;6.30;25.50
19385;DHT22;9828;54.122;17.974;2022-11-15T19:42:35;6.30;27.70
19385;DHT22;9828;54.122;17.974;2022-11-15T19:47:57;6.30;25.10
19385;DHT22;9828;54.122;17.974;2022-11-15T19:53:19;6.30;36.10
19385;DHT22;9828;54.122;17.974;2022-11-15T19:58:41;6.30;28.70
19385;DHT22;9828;54.122;17.974;2022-11-15T20:04:03;6.30;36.60
19385;DHT22;9828;54.122;17.974;2022-11-15T20:09:24;6.30;49.10
19385;DHT22;9828;54.122;17.974;2022-11-15T20:14:46;6.30;43.70
19385;DHT22;9828;54.122;17.974;2022-11-15T20:20:07;6.30;37.80
19385;DHT22;9828;54.122;17.974;2022-11-15T20:25:29;6.30;39.50
19385;DHT22;9828;54.122;17.974;2022-11-15T20:30:52;6.30;41.40
19385;DHT22;9828;54.122;17.974;2022-11-15T20:36:14;6.30;49.20
19385;DHT22;9828;54.122;17.974;2022-11-15T20:41:35;6.20;48.60
19385;DHT22;9828;54.122;17.974;2022-11-15T20:46:56;6.30;74.90
19385;DHT22;9828;54.122;17.974;2022-11-15T20:52:19;6.30;58.50
19385;DHT22;9828;54.122;17.974;2022-11-15T20:57:40;6.30;50.10
19385;DHT22;9828;54.122;17.974;2022-11-15T21:03:02;6.30;46.00
19385;DHT22;9828;54.122;17.974;2022-11-15T21:08:26;6.30;49.80
19385;DHT22;9828;54.122;17.974;2022-11-15T21:13:47;6.30;61.80
19385;DHT22;9828;54.122;17.974;2022-11-15T21:19:09;6.30;39.70
19385;DHT22;9828;54.122;17.974;2022-11-15T21:24:31;6.30;42.50
19385;DHT22;9828;54.122;17.974;2022-11-15T21:29:52;6.30;85.10
19385;DHT22;9828;54.122;17.974;2022-11-15T21:35:14;6.30;62.40
19385;DHT22;9828;54.122;17.974;2022-11-15T21:40:35;6.30;58.50
19385;DHT22;9828;54.122;17.974;2022-11-15T21:45:58;6.30;54.90
19385;DHT22;9828;54.122;17.974;2022-11-15T21:51:20;6.30;55.80
19385;DHT22;9828;54.122;17.974;2022-11-15T21:56:41;6.30;50.70
19385;DHT22;9828;54.122;17.974;2022-11-15T22:02:03;6.20;49.00
19385;DHT22;9828;54.122;17.974;2022-11-15T22:07:36;6.20;66.00
19385;DHT22;9828;54.122;17.974;2022-11-15T22:12:57;6.20;78.40
19385;DHT22;9828;54.122;17.974;2022-11-15T22:18:20;6.20;94.50
19385;DHT22;9828;54.122;17.974;2022-11-15T22:23:45;6.30;76.90
19385;DHT22;9828;54.122;17.974;2022-11-15T22:29:06;6.30;68.70
19385;DHT22;9828;54.122;17.974;2022-11-15T22:34:28;6.30;88.60
19385;DHT22;9828;54.122;17.974;2022-11-15T22:39:49;6.30;60.80
19385;DHT22;9828;54.122;17.974;2022-11-15T22:45:10;6.30;50.80
19385;DHT22;9828;54.122;17.974;2022-11-15T22:50:32;6.30;92.40
19385;DHT22;9828;54.122;17.974;2022-11-15T22:55:55;6.30;92.50
19385;DHT22;9828;54.122;17.974;2022-11-15T23:01:19;6.30;93.50
19385;DHT22;9828;54.122;17.974;2022-11-15T23:06:41;6.40;79.10
19385;DHT22;9828;54.122;17.974;2022-11-15T23:12:03;6.40;59.00
19385;DHT22;9828;54.122;17.974;2022-11-15T23:17:42;6.40;60.80
19385;DHT22;9828;54.122;17.974;2022-11-15T23:23:04;6.40;56.40
19385;DHT22;9828;54.122;17.974;2022-11-15T23:28:25;6.40;58.00
19385;DHT22;9828;54.122;17.974;2022-11-15T23:33:47;6.40;42.70
19385;DHT22;9828;54.122;17.974;2022-11-15T23:39:20;6.40;61.10
19385;DHT22;9828;54.122;17.974;2022-11-15T23:44:41;6.40;80.10
19385;DHT22;9828;54.122;17.974;2022-11-15T23:50:03;6.40;53.00
19385;DHT22;9828;54.122;17.974;2022-11-15T23:55:24;6.40;53.40
